createdAt,value
2019-03-09T00:00:53.063Z,8.13
2019-03-09T00:01:31.890Z,7.80
2019-03-09T00:02:09.511Z,7.13
2019-03-09T00:02:45.196Z,8.60
2019-03-09T00:03:20.962Z,8.03
2019-03-09T00:03:56.563Z,9.30
2019-03-09T00:04:32.184Z,7.20
2019-03-09T00:05:07.876Z,9.47
2019-03-09T00:05:43.432Z,8.27
2019-03-09T00:06:19.005Z,13.17
2019-03-09T00:06:54.648Z,7.37
2019-03-09T00:07:30.306Z,6.97
2019-03-09T00:08:06.194Z,10.37
2019-03-09T00:08:41.901Z,7.30
2019-03-09T00:09:17.575Z,7.90
2019-03-09T00:09:53.275Z,10.40
2019-03-09T00:10:28.928Z,9.13
2019-03-09T00:11:04.623Z,6.37
2019-03-09T00:11:40.166Z,7.40
2019-03-09T00:12:15.828Z,8.03
2019-03-09T00:12:51.464Z,9.47
2019-03-09T00:13:27.088Z,9.87
2019-03-09T00:14:02.725Z,8.77
2019-03-09T00:14:38.558Z,6.63
2019-03-09T00:15:14.472Z,6.17
2019-03-09T00:15:50.336Z,7.80
2019-03-09T00:16:25.982Z,8.10
2019-03-09T00:17:01.680Z,7.37
2019-03-09T00:17:37.220Z,8.20
2019-03-09T00:18:12.835Z,10.40
2019-03-09T00:18:48.469Z,7.97
2019-03-09T00:19:25.062Z,10.93
2019-03-09T00:20:00.726Z,9.63
2019-03-09T00:20:36.348Z,6.87
2019-03-09T00:21:11.992Z,7.30
2019-03-09T00:21:47.922Z,6.13
2019-03-09T00:22:23.475Z,8.07
2019-03-09T00:23:07.555Z,9.47
2019-03-09T00:23:57.122Z,8.83
2019-03-09T00:25:10.054Z,7.90
2019-03-09T00:26:04.866Z,8.83
2019-03-09T00:27:02.517Z,8.90
2019-03-09T00:28:06.283Z,8.07
2019-03-09T00:28:51.239Z,11.73
2019-03-09T00:29:34.832Z,10.70
2019-03-09T00:30:28.466Z,6.97
2019-03-09T00:31:11.230Z,8.20
2019-03-09T00:31:53.135Z,8.40
2019-03-09T00:32:29.154Z,9.63
2019-03-09T00:33:04.797Z,8.53
2019-03-09T00:33:40.411Z,8.13
2019-03-09T00:34:15.960Z,11.73
2019-03-09T00:34:51.576Z,12.30
2019-03-09T00:35:27.248Z,12.70
2019-03-09T00:36:02.867Z,8.63
2019-03-09T00:36:38.435Z,10.97
2019-03-09T00:37:13.974Z,8.50
2019-03-09T00:37:49.518Z,9.47
2019-03-09T00:38:26.335Z,7.03
2019-03-09T00:39:01.905Z,10.33
2019-03-09T00:39:39.320Z,10.37
2019-03-09T00:40:14.958Z,7.30
2019-03-09T00:40:50.537Z,11.43
2019-03-09T00:41:26.158Z,10.17
2019-03-09T00:42:02.171Z,9.63
2019-03-09T00:42:37.716Z,13.73
2019-03-09T00:43:13.268Z,12.20
2019-03-09T00:43:48.872Z,11.00
2019-03-09T00:44:24.484Z,13.00
2019-03-09T00:45:00.346Z,10.53
2019-03-09T00:45:36.022Z,10.90
2019-03-09T00:46:11.978Z,9.20
2019-03-09T00:46:47.580Z,10.87
2019-03-09T00:47:23.123Z,11.63
2019-03-09T00:47:58.771Z,10.80
2019-03-09T00:48:34.663Z,7.93
2019-03-09T00:49:11.288Z,10.30
2019-03-09T00:49:47.123Z,10.27
2019-03-09T00:50:22.742Z,10.47
2019-03-09T00:50:58.403Z,16.13
2019-03-09T00:51:34.384Z,15.23
2019-03-09T00:52:09.931Z,13.67
2019-03-09T00:52:45.683Z,18.47
2019-03-09T00:53:21.546Z,12.90
2019-03-09T00:53:57.087Z,13.40
2019-03-09T00:54:32.774Z,12.83
2019-03-09T00:55:09.691Z,11.13
2019-03-09T00:55:45.378Z,12.13
2019-03-09T00:56:20.991Z,11.27
2019-03-09T00:56:56.585Z,10.57
2019-03-09T00:57:32.279Z,10.60
2019-03-09T00:58:09.203Z,17.67
2019-03-09T00:58:44.877Z,13.83
2019-03-09T00:59:20.818Z,16.67
2019-03-09T00:59:57.294Z,13.17
2019-03-09T01:00:32.916Z,14.93
2019-03-09T01:01:08.719Z,17.90
2019-03-09T01:01:44.394Z,10.53
2019-03-09T01:02:20.019Z,15.97
2019-03-09T01:02:57.199Z,15.43
2019-03-09T01:03:33.005Z,9.83
2019-03-09T01:04:08.656Z,15.43
2019-03-09T01:04:44.411Z,12.57
2019-03-09T01:05:19.955Z,13.97
2019-03-09T01:05:55.835Z,19.93
2019-03-09T01:06:31.394Z,11.77
2019-03-09T01:07:06.939Z,13.00
2019-03-09T01:07:42.935Z,13.43
2019-03-09T01:08:18.534Z,16.43
2019-03-09T01:08:54.218Z,14.57
2019-03-09T01:09:30.311Z,12.43
2019-03-09T01:10:07.907Z,12.37
2019-03-09T01:10:43.456Z,17.70
2019-03-09T01:11:19.082Z,15.97
2019-03-09T01:11:54.627Z,15.03
2019-03-09T01:12:30.231Z,15.47
2019-03-09T01:13:06.220Z,13.67
2019-03-09T01:13:41.830Z,17.97
2019-03-09T01:14:17.700Z,16.03
2019-03-09T01:14:53.251Z,15.23
2019-03-09T01:15:28.802Z,15.40
2019-03-09T01:16:04.779Z,16.57
2019-03-09T01:16:40.331Z,15.90
2019-03-09T01:17:15.950Z,14.10
2019-03-09T01:17:51.621Z,16.47
2019-03-09T01:18:27.158Z,13.00
2019-03-09T01:19:02.828Z,17.50
2019-03-09T01:19:38.594Z,16.67
2019-03-09T01:20:15.454Z,17.17
2019-03-09T01:20:51.067Z,14.63
2019-03-09T01:21:26.696Z,14.77
2019-03-09T01:22:02.235Z,16.07
2019-03-09T01:22:37.884Z,13.93
2019-03-09T01:23:13.598Z,14.57
2019-03-09T01:23:49.426Z,16.53
2019-03-09T01:24:25.440Z,15.50
2019-03-09T01:25:01.015Z,15.43
2019-03-09T01:25:36.548Z,13.30
2019-03-09T01:26:12.131Z,11.53
2019-03-09T01:26:47.667Z,15.53
2019-03-09T01:27:23.218Z,14.33
2019-03-09T01:27:58.815Z,16.30
2019-03-09T01:28:34.358Z,11.67
2019-03-09T01:29:11.220Z,12.57
2019-03-09T01:29:46.768Z,10.60
2019-03-09T01:30:22.474Z,15.40
2019-03-09T01:30:58.112Z,18.70
2019-03-09T01:31:34.036Z,14.87
2019-03-09T01:32:09.984Z,14.70
2019-03-09T01:32:45.617Z,12.93
2019-03-09T01:33:21.197Z,13.27
2019-03-09T01:33:56.754Z,13.30
2019-03-09T01:34:32.340Z,22.53
2019-03-09T01:35:07.898Z,16.73
2019-03-09T01:35:43.451Z,16.50
2019-03-09T01:36:19.055Z,17.70
2019-03-09T01:36:54.608Z,12.50
2019-03-09T01:37:30.206Z,15.53
2019-03-09T01:38:05.749Z,16.23
2019-03-09T01:38:41.720Z,13.60
2019-03-09T01:39:17.416Z,14.13
2019-03-09T01:39:53.030Z,13.70
2019-03-09T01:40:28.570Z,16.43
2019-03-09T01:41:04.109Z,17.47
2019-03-09T01:41:39.674Z,16.60
2019-03-09T01:42:15.511Z,13.53
2019-03-09T01:42:51.055Z,11.13
2019-03-09T01:43:26.747Z,14.77
2019-03-09T01:44:02.568Z,14.17
2019-03-09T01:44:38.402Z,14.53
2019-03-09T01:45:14.382Z,13.90
2019-03-09T01:45:49.961Z,18.27
2019-03-09T01:46:25.526Z,14.07
2019-03-09T01:47:01.106Z,17.90
2019-03-09T01:47:36.652Z,12.67
2019-03-09T01:48:12.244Z,13.63
2019-03-09T01:48:47.823Z,14.17
2019-03-09T01:49:23.358Z,15.20
2019-03-09T01:49:58.917Z,14.40
2019-03-09T01:50:34.490Z,15.37
2019-03-09T01:51:10.064Z,14.93
2019-03-09T01:51:45.687Z,14.70
2019-03-09T01:52:21.307Z,13.63
2019-03-09T01:52:56.862Z,13.33
2019-03-09T01:53:36.705Z,14.53
2019-03-09T01:54:09.986Z,14.13
2019-03-09T01:54:45.593Z,17.53
2019-03-09T01:55:21.403Z,12.93
2019-03-09T01:55:56.947Z,12.03
2019-03-09T01:56:32.663Z,14.00
2019-03-09T01:57:08.214Z,14.17
2019-03-09T01:57:44.154Z,14.07
2019-03-09T01:58:19.757Z,14.90
2019-03-09T01:58:55.330Z,9.83
2019-03-09T01:59:31.163Z,22.10
2019-03-09T02:00:07.257Z,17.63
2019-03-09T02:00:43.914Z,12.63
2019-03-09T02:01:19.470Z,14.33
2019-03-09T02:01:55.372Z,13.20
2019-03-09T02:02:30.945Z,11.07
2019-03-09T02:03:06.534Z,16.17
2019-03-09T02:03:42.182Z,16.43
2019-03-09T02:04:17.823Z,17.17
2019-03-09T02:04:53.727Z,19.80
2019-03-09T02:05:29.394Z,15.33
2019-03-09T02:06:05.018Z,14.70
2019-03-09T02:06:40.629Z,13.37
2019-03-09T02:07:16.204Z,15.87
2019-03-09T02:07:51.755Z,19.60
2019-03-09T02:08:27.331Z,12.50
2019-03-09T02:09:03.091Z,14.63
2019-03-09T02:09:40.303Z,13.60
2019-03-09T02:10:15.890Z,13.27
2019-03-09T02:10:51.561Z,13.80
2019-03-09T02:11:27.260Z,13.53
2019-03-09T02:12:03.582Z,12.10
2019-03-09T02:12:39.110Z,13.07
2019-03-09T02:13:14.688Z,12.73
2019-03-09T02:13:50.698Z,14.20
2019-03-09T02:14:26.861Z,15.13
2019-03-09T02:15:02.398Z,12.50
2019-03-09T02:15:39.950Z,12.30
2019-03-09T02:16:15.880Z,15.00
2019-03-09T02:16:51.744Z,14.87
2019-03-09T02:17:27.342Z,14.10
2019-03-09T02:18:02.962Z,11.97
2019-03-09T02:18:38.853Z,16.23
2019-03-09T02:19:14.699Z,15.97
2019-03-09T02:19:50.247Z,13.10
2019-03-09T02:20:25.799Z,14.00
2019-03-09T02:21:01.342Z,13.20
2019-03-09T02:21:36.894Z,13.77
2019-03-09T02:22:12.503Z,15.63
2019-03-09T02:22:48.051Z,17.47
2019-03-09T02:23:23.612Z,17.10
2019-03-09T02:23:59.207Z,17.10
2019-03-09T02:24:34.874Z,14.87
2019-03-09T02:25:10.424Z,15.63
2019-03-09T02:25:46.000Z,16.67
2019-03-09T02:26:21.534Z,13.33
2019-03-09T02:26:57.087Z,18.77
2019-03-09T02:27:32.654Z,13.10
2019-03-09T02:28:08.203Z,18.83
2019-03-09T02:28:43.804Z,14.73
2019-03-09T02:29:19.367Z,14.43
2019-03-09T02:29:55.200Z,16.40
2019-03-09T02:30:30.995Z,18.37
2019-03-09T02:31:06.580Z,15.23
2019-03-09T02:31:42.155Z,15.40
2019-03-09T02:32:17.834Z,11.53
2019-03-09T02:32:53.718Z,15.33
2019-03-09T02:33:29.275Z,12.20
2019-03-09T02:34:04.827Z,15.07
2019-03-09T02:34:40.390Z,14.40
2019-03-09T02:35:15.943Z,14.10
2019-03-09T02:35:51.502Z,12.97
2019-03-09T02:36:27.039Z,16.10
2019-03-09T02:37:02.587Z,17.33
2019-03-09T02:37:38.173Z,20.83
2019-03-09T02:38:36.075Z,19.50
2019-03-09T02:39:34.605Z,14.70
2019-03-09T02:40:16.051Z,17.23
2019-03-09T02:40:51.913Z,14.87
2019-03-09T02:41:27.505Z,16.50
2019-03-09T02:42:03.097Z,16.37
2019-03-09T02:42:38.655Z,14.83
2019-03-09T02:43:14.211Z,15.10
2019-03-09T02:43:49.783Z,15.03
2019-03-09T02:44:25.415Z,19.23
2019-03-09T02:45:01.365Z,14.23
2019-03-09T02:45:36.978Z,13.20
2019-03-09T02:46:12.856Z,17.53
2019-03-09T02:46:48.707Z,15.50
2019-03-09T02:47:24.260Z,16.17
2019-03-09T02:47:59.870Z,17.90
2019-03-09T02:48:35.698Z,16.10
2019-03-09T02:49:11.300Z,18.93
2019-03-09T02:49:46.880Z,15.87
2019-03-09T02:50:22.448Z,14.00
2019-03-09T02:50:58.083Z,19.50
2019-03-09T02:51:33.956Z,14.33
2019-03-09T02:52:09.531Z,17.30
2019-03-09T02:52:45.649Z,16.07
2019-03-09T02:53:21.195Z,16.70
2019-03-09T02:53:57.034Z,13.63
2019-03-09T02:54:32.971Z,17.17
2019-03-09T02:55:08.588Z,16.60
2019-03-09T02:55:44.750Z,17.13
2019-03-09T02:56:21.122Z,13.83
2019-03-09T02:56:56.944Z,13.30
2019-03-09T02:57:32.516Z,16.87
2019-03-09T02:58:08.714Z,16.77
2019-03-09T02:58:44.400Z,13.80
2019-03-09T02:59:19.947Z,16.63
2019-03-09T02:59:55.515Z,13.93
2019-03-09T03:00:35.840Z,14.43
2019-03-09T03:01:33.510Z,15.60
2019-03-09T03:02:27.338Z,18.43
2019-03-09T03:03:04.629Z,15.33
2019-03-09T03:03:40.187Z,16.30
2019-03-09T03:04:15.741Z,16.10
2019-03-09T03:04:51.315Z,16.23
2019-03-09T03:05:27.190Z,16.90
2019-03-09T03:06:02.747Z,20.30
2019-03-09T03:06:38.570Z,17.13
2019-03-09T03:07:14.419Z,13.70
2019-03-09T03:07:49.961Z,13.80
2019-03-09T03:08:25.541Z,15.80
2019-03-09T03:09:01.868Z,12.10
2019-03-09T03:09:39.378Z,15.37
2019-03-09T03:10:15.187Z,14.83
2019-03-09T03:10:50.746Z,14.27
2019-03-09T03:11:26.288Z,15.13
2019-03-09T03:12:01.851Z,12.60
2019-03-09T03:12:38.010Z,12.77
2019-03-09T03:13:13.554Z,13.77
2019-03-09T03:13:49.205Z,14.83
2019-03-09T03:14:24.759Z,15.23
2019-03-09T03:15:00.591Z,12.87
2019-03-09T03:15:37.782Z,12.70
2019-03-09T03:16:13.346Z,13.83
2019-03-09T03:16:48.909Z,12.27
2019-03-09T03:17:24.523Z,15.23
2019-03-09T03:18:00.081Z,12.73
2019-03-09T03:18:35.636Z,12.23
2019-03-09T03:19:11.428Z,12.73
2019-03-09T03:19:46.992Z,11.57
2019-03-09T03:20:22.542Z,13.00
2019-03-09T03:20:58.102Z,14.50
2019-03-09T03:21:33.640Z,12.47
2019-03-09T03:22:09.194Z,11.33
2019-03-09T03:22:44.759Z,10.63
2019-03-09T03:23:20.316Z,15.03
2019-03-09T03:23:55.868Z,11.53
2019-03-09T03:24:31.426Z,13.60
2019-03-09T03:25:06.986Z,12.53
2019-03-09T03:25:42.864Z,11.57
2019-03-09T03:26:18.478Z,13.00
2019-03-09T03:26:54.034Z,12.30
2019-03-09T03:27:29.601Z,13.23
2019-03-09T03:28:05.215Z,13.17
2019-03-09T03:28:40.760Z,12.43
2019-03-09T03:29:16.631Z,13.13
2019-03-09T03:29:52.200Z,12.40
2019-03-09T03:30:28.032Z,12.97
2019-03-09T03:31:03.668Z,9.50
2019-03-09T03:31:39.357Z,11.60
2019-03-09T03:32:15.217Z,11.53
2019-03-09T03:32:52.621Z,14.50
2019-03-09T03:33:28.562Z,12.57
2019-03-09T03:34:04.099Z,10.90
2019-03-09T03:34:39.643Z,11.60
2019-03-09T03:35:15.528Z,12.90
2019-03-09T03:35:51.345Z,11.93
2019-03-09T03:36:27.139Z,12.73
2019-03-09T03:37:02.780Z,11.27
2019-03-09T03:37:39.291Z,11.70
2019-03-09T03:38:15.145Z,14.07
2019-03-09T03:38:50.686Z,11.87
2019-03-09T03:39:26.238Z,14.87
2019-03-09T03:40:01.821Z,11.30
2019-03-09T03:40:37.696Z,11.00
2019-03-09T03:41:13.546Z,11.60
2019-03-09T03:41:49.159Z,11.27
2019-03-09T03:42:24.715Z,12.53
2019-03-09T03:43:00.270Z,12.53
2019-03-09T03:43:36.605Z,11.13
2019-03-09T03:44:12.424Z,11.57
2019-03-09T03:44:47.993Z,10.83
2019-03-09T03:45:23.546Z,10.07
2019-03-09T03:45:59.447Z,9.63
2019-03-09T03:46:34.987Z,9.93
2019-03-09T03:47:10.812Z,11.00
2019-03-09T03:47:46.352Z,8.70
2019-03-09T03:48:21.893Z,9.40
2019-03-09T03:48:57.499Z,10.03
2019-03-09T03:49:33.054Z,9.17
2019-03-09T03:50:08.993Z,9.83
2019-03-09T03:50:44.585Z,9.90
2019-03-09T03:51:20.468Z,8.80
2019-03-09T03:51:56.244Z,11.93
2019-03-09T03:52:31.797Z,11.13
2019-03-09T03:53:07.329Z,10.63
2019-03-09T03:53:42.957Z,10.97
2019-03-09T03:54:18.504Z,9.83
2019-03-09T03:54:54.069Z,11.53
2019-03-09T03:55:30.029Z,9.33
2019-03-09T03:56:05.976Z,10.03
2019-03-09T03:56:41.503Z,12.67
2019-03-09T03:57:17.312Z,10.17
2019-03-09T03:57:52.925Z,10.87
2019-03-09T03:58:28.518Z,10.33
2019-03-09T03:59:04.119Z,8.90
2019-03-09T03:59:39.684Z,11.43
2019-03-09T04:00:15.335Z,9.90
2019-03-09T04:00:50.884Z,10.23
2019-03-09T04:01:26.426Z,11.00
2019-03-09T04:02:02.278Z,9.93
2019-03-09T04:02:38.067Z,10.00
2019-03-09T04:03:13.628Z,11.27
2019-03-09T04:03:49.179Z,10.47
2019-03-09T04:04:24.723Z,9.23
2019-03-09T04:05:00.410Z,9.67
2019-03-09T04:05:36.101Z,9.33
2019-03-09T04:06:11.668Z,8.97
2019-03-09T04:06:47.507Z,8.50
2019-03-09T04:07:23.055Z,9.40
2019-03-09T04:07:58.897Z,10.63
2019-03-09T04:08:34.461Z,9.70
2019-03-09T04:09:10.000Z,10.30
2019-03-09T04:09:45.835Z,9.57
2019-03-09T04:10:21.392Z,10.00
2019-03-09T04:10:57.287Z,12.57
2019-03-09T04:11:32.929Z,11.43
2019-03-09T04:12:09.095Z,10.77
2019-03-09T04:12:45.219Z,9.13
2019-03-09T04:13:22.403Z,9.63
2019-03-09T04:13:57.935Z,9.90
2019-03-09T04:14:33.529Z,9.93
2019-03-09T04:15:09.151Z,10.50
2019-03-09T04:15:44.840Z,9.90
2019-03-09T04:16:20.703Z,11.57
2019-03-09T04:16:56.320Z,10.00
2019-03-09T04:17:31.912Z,9.83
2019-03-09T04:18:07.843Z,8.57
2019-03-09T04:18:43.700Z,11.60
2019-03-09T04:19:19.315Z,9.10
2019-03-09T04:19:55.484Z,9.07
2019-03-09T04:20:31.275Z,9.07
2019-03-09T04:21:07.784Z,8.93
2019-03-09T04:21:43.395Z,9.83
2019-03-09T04:22:19.034Z,9.10
2019-03-09T04:22:54.818Z,8.67
2019-03-09T04:23:30.366Z,9.17
2019-03-09T04:24:05.984Z,11.67
2019-03-09T04:24:41.620Z,9.70
2019-03-09T04:25:17.710Z,9.70
2019-03-09T04:25:53.573Z,8.37
2019-03-09T04:26:29.127Z,9.17
2019-03-09T04:27:04.700Z,9.20
2019-03-09T04:27:40.248Z,7.60
2019-03-09T04:28:16.060Z,9.83
2019-03-09T04:28:52.612Z,9.13
2019-03-09T04:29:28.152Z,10.23
2019-03-09T04:30:03.800Z,8.50
2019-03-09T04:30:40.419Z,9.00
2019-03-09T04:31:15.998Z,8.97
2019-03-09T04:31:51.878Z,10.60
2019-03-09T04:32:27.680Z,10.90
2019-03-09T04:33:03.304Z,9.73
2019-03-09T04:33:38.868Z,10.03
2019-03-09T04:34:14.659Z,9.77
2019-03-09T04:34:50.307Z,10.53
2019-03-09T04:35:25.947Z,10.53
2019-03-09T04:36:01.540Z,15.80
2019-03-09T04:36:37.095Z,16.07
2019-03-09T04:37:12.666Z,15.10
2019-03-09T04:37:48.249Z,18.07
2019-03-09T04:38:23.858Z,16.63
2019-03-09T04:38:59.495Z,16.03
2019-03-09T04:39:35.311Z,15.40
2019-03-09T04:40:11.003Z,16.07
2019-03-09T04:40:46.896Z,15.37
2019-03-09T04:41:22.454Z,19.17
2019-03-09T04:41:58.054Z,14.43
2019-03-09T04:42:33.759Z,17.50
2019-03-09T04:43:09.386Z,16.83
2019-03-09T04:43:45.290Z,15.10
2019-03-09T04:44:20.831Z,13.97
2019-03-09T04:44:56.379Z,14.87
2019-03-09T04:45:31.978Z,15.23
2019-03-09T04:46:07.540Z,13.60
2019-03-09T04:46:43.214Z,16.90
2019-03-09T04:47:18.774Z,15.00
2019-03-09T04:47:54.410Z,14.30
2019-03-09T04:48:29.962Z,16.03
2019-03-09T04:49:05.583Z,16.83
2019-03-09T04:49:41.179Z,13.93
2019-03-09T04:50:17.094Z,15.17
2019-03-09T04:50:52.686Z,18.73
2019-03-09T04:51:28.288Z,18.33
2019-03-09T04:52:04.311Z,17.43
2019-03-09T04:52:39.875Z,15.43
2019-03-09T04:53:16.395Z,16.50
2019-03-09T04:53:51.970Z,14.07
2019-03-09T04:54:27.539Z,15.23
2019-03-09T04:55:03.234Z,15.23
2019-03-09T04:55:39.249Z,14.37
2019-03-09T04:56:15.087Z,14.00
2019-03-09T04:56:50.878Z,13.30
2019-03-09T04:57:26.698Z,13.00
2019-03-09T04:58:02.315Z,14.23
2019-03-09T04:58:37.907Z,14.27
2019-03-09T04:59:13.774Z,13.53
2019-03-09T04:59:49.342Z,14.17
2019-03-09T05:00:24.887Z,13.90
2019-03-09T05:01:01.139Z,14.37
2019-03-09T05:01:36.763Z,16.50
2019-03-09T05:02:12.559Z,16.07
2019-03-09T05:02:48.112Z,14.87
2019-03-09T05:03:23.653Z,18.83
2019-03-09T05:04:49.781Z,15.17
2019-03-09T05:05:25.372Z,16.93
2019-03-09T05:06:00.926Z,21.43
2019-03-09T05:06:36.576Z,20.60
2019-03-09T05:07:18.451Z,20.40
2019-03-09T05:08:07.247Z,18.77
2019-03-09T05:08:54.507Z,20.83
2019-03-09T05:09:49.262Z,21.20
2019-03-09T05:10:46.903Z,22.30
2019-03-09T05:11:26.533Z,18.90
2019-03-09T05:12:02.424Z,20.80
2019-03-09T05:12:38.046Z,21.67
2019-03-09T05:13:20.294Z,21.80
2019-03-09T05:14:01.949Z,19.77
2019-03-09T05:14:37.934Z,20.73
2019-03-09T05:15:13.778Z,20.40
2019-03-09T05:15:49.623Z,18.70
2019-03-09T05:16:25.207Z,19.90
2019-03-09T05:17:00.769Z,20.00
2019-03-09T05:17:36.433Z,18.00
2019-03-09T05:18:11.986Z,20.83
2019-03-09T05:18:48.224Z,18.47
2019-03-09T05:19:23.771Z,20.90
2019-03-09T05:19:59.402Z,18.77
2019-03-09T05:20:34.942Z,21.13
2019-03-09T05:21:10.979Z,20.93
2019-03-09T05:21:46.538Z,21.63
2019-03-09T05:22:22.107Z,19.57
2019-03-09T05:22:57.695Z,18.93
2019-03-09T05:23:33.244Z,19.27
2019-03-09T05:24:09.143Z,19.97
2019-03-09T05:24:44.988Z,19.40
2019-03-09T05:25:20.640Z,18.83
2019-03-09T05:25:56.467Z,19.50
2019-03-09T05:26:32.026Z,26.50
2019-03-09T05:27:07.586Z,22.40
2019-03-09T05:27:43.171Z,19.40
2019-03-09T05:28:18.794Z,21.27
2019-03-09T05:28:54.348Z,20.47
2019-03-09T05:29:29.910Z,20.63
2019-03-09T05:30:05.904Z,24.50
2019-03-09T05:30:42.695Z,19.97
2019-03-09T05:31:18.307Z,18.90
2019-03-09T05:31:53.869Z,18.90
2019-03-09T05:32:29.415Z,22.63
2019-03-09T05:33:05.263Z,19.70
2019-03-09T05:33:41.450Z,19.07
2019-03-09T05:34:17.004Z,18.73
2019-03-09T05:34:52.587Z,21.50
2019-03-09T05:35:28.135Z,24.13
2019-03-09T05:36:03.940Z,24.87
2019-03-09T05:36:39.747Z,25.07
2019-03-09T05:37:15.304Z,26.23
2019-03-09T05:37:51.539Z,21.80
2019-03-09T05:38:27.354Z,22.23
2019-03-09T05:39:04.787Z,21.30
2019-03-09T05:39:41.031Z,19.47
2019-03-09T05:40:16.925Z,20.23
2019-03-09T05:40:52.469Z,24.57
2019-03-09T05:41:28.071Z,19.47
2019-03-09T05:42:03.713Z,19.57
2019-03-09T05:42:39.291Z,21.63
2019-03-09T05:43:15.130Z,19.40
2019-03-09T05:43:52.703Z,19.20
2019-03-09T05:44:28.649Z,28.03
2019-03-09T05:45:04.556Z,21.87
2019-03-09T05:45:40.463Z,21.70
2019-03-09T05:46:16.015Z,20.40
2019-03-09T05:46:51.905Z,22.40
2019-03-09T05:47:27.455Z,20.53
2019-03-09T05:48:03.056Z,25.03
2019-03-09T05:48:38.683Z,21.53
2019-03-09T05:49:14.230Z,27.20
2019-03-09T05:49:50.074Z,21.50
2019-03-09T05:50:25.642Z,22.93
2019-03-09T05:51:01.238Z,25.97
2019-03-09T05:51:37.091Z,23.13
2019-03-09T05:52:35.013Z,25.47
2019-03-09T05:53:21.391Z,22.37
2019-03-09T05:53:56.999Z,27.63
2019-03-09T05:54:32.910Z,26.77
2019-03-09T05:55:16.785Z,30.60
2019-03-09T05:55:52.702Z,22.93
2019-03-09T05:56:28.338Z,25.40
2019-03-09T05:57:03.886Z,24.03
2019-03-09T05:57:39.451Z,25.33
2019-03-09T05:58:15.007Z,22.23
2019-03-09T05:58:50.899Z,23.20
2019-03-09T05:59:26.733Z,23.10
2019-03-09T06:00:02.336Z,23.23
2019-03-09T06:00:39.821Z,21.97
2019-03-09T06:01:15.389Z,22.97
2019-03-09T06:01:51.295Z,22.30
2019-03-09T06:02:26.887Z,29.37
2019-03-09T06:03:02.455Z,23.93
2019-03-09T06:03:38.011Z,22.63
2019-03-09T06:04:13.554Z,24.07
2019-03-09T06:04:49.182Z,29.83
2019-03-09T06:05:30.119Z,24.83
2019-03-09T06:06:13.911Z,24.40
2019-03-09T06:06:49.478Z,24.57
2019-03-09T06:07:25.192Z,25.00
2019-03-09T06:08:00.773Z,26.10
2019-03-09T06:08:36.606Z,28.50
2019-03-09T06:09:12.203Z,28.27
2019-03-09T06:09:47.778Z,25.63
2019-03-09T06:10:23.331Z,25.17
2019-03-09T06:10:58.938Z,25.80
2019-03-09T06:11:34.478Z,25.87
2019-03-09T06:12:10.044Z,25.73
2019-03-09T06:12:46.261Z,25.10
2019-03-09T06:13:21.849Z,26.57
2019-03-09T06:13:57.395Z,31.30
2019-03-09T06:14:32.965Z,26.77
2019-03-09T06:15:08.514Z,25.77
2019-03-09T06:15:44.426Z,28.47
2019-03-09T06:16:19.979Z,26.37
2019-03-09T06:16:55.796Z,25.20
2019-03-09T06:17:31.407Z,28.17
2019-03-09T06:18:07.289Z,25.47
2019-03-09T06:18:42.956Z,25.60
2019-03-09T06:19:18.523Z,26.93
2019-03-09T06:19:54.118Z,25.40
2019-03-09T06:20:29.699Z,26.40
2019-03-09T06:21:05.280Z,24.33
2019-03-09T06:21:40.902Z,25.03
2019-03-09T06:22:16.546Z,26.80
2019-03-09T06:22:52.119Z,25.47
2019-03-09T06:23:28.139Z,28.17
2019-03-09T06:24:03.752Z,29.60
2019-03-09T06:24:39.367Z,28.07
2019-03-09T06:25:14.923Z,27.37
2019-03-09T06:25:50.779Z,27.20
2019-03-09T06:26:26.480Z,27.57
2019-03-09T06:27:02.047Z,26.50
2019-03-09T06:27:37.659Z,29.40
2019-03-09T06:28:13.498Z,27.57
2019-03-09T06:28:49.042Z,32.07
2019-03-09T06:29:24.609Z,28.80
2019-03-09T06:30:00.305Z,33.50
2019-03-09T06:30:35.911Z,28.07
2019-03-09T06:31:11.498Z,27.83
2019-03-09T06:32:28.882Z,27.90
2019-03-09T06:33:26.295Z,31.07
2019-03-09T06:34:02.114Z,35.17
2019-03-09T06:34:37.761Z,31.57
2019-03-09T06:35:13.751Z,27.63
2019-03-09T06:35:52.555Z,29.53
2019-03-09T06:37:03.375Z,29.33
2019-03-09T06:37:39.303Z,29.33
2019-03-09T06:38:41.241Z,39.80
2019-03-09T06:39:19.301Z,27.60
2019-03-09T06:39:56.534Z,35.63
2019-03-09T06:40:32.089Z,30.67
2019-03-09T06:41:09.543Z,34.07
2019-03-09T06:42:24.458Z,28.67
2019-03-09T06:43:00.252Z,29.47
2019-03-09T06:43:35.884Z,27.60
2019-03-09T06:44:11.432Z,27.67
2019-03-09T06:44:47.523Z,27.57
2019-03-09T06:45:23.189Z,28.70
2019-03-09T06:45:58.883Z,31.73
2019-03-09T06:46:34.544Z,26.87
2019-03-09T06:47:10.430Z,27.60
2019-03-09T06:47:46.007Z,27.53
2019-03-09T06:48:21.601Z,29.17
2019-03-09T06:48:57.166Z,31.83
2019-03-09T06:49:32.804Z,29.57
2019-03-09T06:50:10.039Z,30.97
2019-03-09T06:50:45.695Z,27.77
2019-03-09T06:51:21.246Z,26.83
2019-03-09T06:51:56.799Z,29.60
2019-03-09T06:52:32.345Z,28.03
2019-03-09T06:53:07.904Z,26.80
2019-03-09T06:53:43.539Z,28.20
2019-03-09T06:54:19.339Z,26.37
2019-03-09T06:54:54.925Z,26.93
2019-03-09T06:55:30.478Z,28.83
2019-03-09T06:56:06.085Z,30.93
2019-03-09T06:56:42.250Z,33.53
2019-03-09T06:57:18.053Z,27.57
2019-03-09T06:57:54.584Z,26.87
2019-03-09T06:58:30.197Z,28.03
2019-03-09T06:59:05.746Z,25.03
2019-03-09T06:59:41.299Z,26.27
2019-03-09T07:00:31.191Z,26.43
2019-03-09T07:01:18.799Z,26.40
2019-03-09T07:01:54.353Z,28.37
2019-03-09T07:02:29.914Z,31.30
2019-03-09T07:03:06.227Z,30.27
2019-03-09T07:03:42.095Z,28.20
2019-03-09T07:04:17.660Z,28.80
2019-03-09T07:04:53.231Z,29.00
2019-03-09T07:05:29.047Z,26.57
2019-03-09T07:06:04.613Z,31.43
2019-03-09T07:06:40.160Z,29.47
2019-03-09T07:07:15.742Z,26.77
2019-03-09T07:07:51.301Z,34.27
2019-03-09T07:08:27.115Z,29.60
2019-03-09T07:09:04.636Z,28.70
2019-03-09T07:09:41.843Z,31.07
2019-03-09T07:10:17.468Z,27.10
2019-03-09T07:10:53.019Z,29.40
2019-03-09T07:11:28.862Z,29.60
2019-03-09T07:12:04.639Z,28.67
2019-03-09T07:12:40.241Z,26.87
2019-03-09T07:13:15.793Z,29.20
2019-03-09T07:13:53.117Z,29.03
2019-03-09T07:15:18.714Z,34.60
2019-03-09T07:15:54.786Z,32.20
2019-03-09T07:16:30.730Z,29.30
2019-03-09T07:17:06.280Z,39.30
2019-03-09T07:17:43.152Z,29.00
2019-03-09T07:18:21.119Z,29.03
2019-03-09T07:18:56.961Z,28.77
2019-03-09T07:19:32.526Z,26.50
2019-03-09T07:20:12.606Z,28.53
2019-03-09T07:20:46.169Z,29.13
2019-03-09T07:21:21.717Z,31.77
2019-03-09T07:21:58.330Z,27.67
2019-03-09T07:22:33.878Z,27.40
2019-03-09T07:23:09.440Z,35.43
2019-03-09T07:23:45.294Z,28.97
2019-03-09T07:24:20.864Z,29.67
2019-03-09T07:24:56.427Z,28.43
2019-03-09T07:25:31.987Z,28.37
2019-03-09T07:26:07.610Z,29.30
2019-03-09T07:26:43.171Z,34.23
2019-03-09T07:27:18.734Z,29.50
2019-03-09T07:28:02.214Z,28.37
2019-03-09T07:28:37.758Z,27.67
2019-03-09T07:29:13.581Z,26.03
2019-03-09T07:29:49.489Z,27.17
2019-03-09T07:30:25.339Z,28.07
2019-03-09T07:31:00.971Z,25.80
2019-03-09T07:31:36.546Z,34.23
2019-03-09T07:32:12.124Z,27.43
2019-03-09T07:32:47.683Z,27.23
2019-03-09T07:33:23.257Z,27.40
2019-03-09T07:34:21.699Z,27.70
2019-03-09T07:34:57.250Z,26.77
2019-03-09T07:35:32.829Z,26.93
2019-03-09T07:36:08.372Z,30.10
2019-03-09T07:36:43.931Z,27.53
2019-03-09T07:37:19.868Z,26.27
2019-03-09T07:37:55.758Z,26.97
2019-03-09T07:38:31.308Z,33.10
2019-03-09T07:39:06.863Z,29.33
2019-03-09T07:39:43.703Z,26.00
2019-03-09T07:40:19.557Z,25.90
2019-03-09T07:40:55.381Z,26.73
2019-03-09T07:41:30.926Z,27.07
2019-03-09T07:42:06.475Z,24.00
2019-03-09T07:42:42.035Z,27.67
2019-03-09T07:43:17.588Z,25.93
2019-03-09T07:43:53.462Z,25.33
2019-03-09T07:44:29.018Z,25.87
2019-03-09T07:45:05.243Z,25.20
2019-03-09T07:45:40.782Z,24.10
2019-03-09T07:46:16.428Z,23.20
2019-03-09T07:46:51.995Z,24.50
2019-03-09T07:47:27.550Z,22.97
2019-03-09T07:48:03.123Z,24.20
2019-03-09T07:48:38.677Z,26.17
2019-03-09T07:49:14.286Z,26.07
2019-03-09T07:49:49.876Z,24.00
2019-03-09T07:50:26.062Z,26.77
2019-03-09T07:51:01.699Z,23.80
2019-03-09T07:51:37.330Z,23.17
2019-03-09T07:52:33.155Z,27.07
2019-03-09T07:53:09.060Z,26.33
2019-03-09T07:53:44.624Z,24.80
2019-03-09T07:54:20.169Z,23.70
2019-03-09T07:54:55.727Z,24.57
2019-03-09T07:55:31.332Z,26.67
2019-03-09T07:56:07.076Z,25.83